createdAt,value
2023-04-12T00:04:56.267Z,41.48
2023-04-12T00:09:58.356Z,41.38
2023-04-12T00:15:01.789Z,41.13
2023-04-12T00:20:12.349Z,41.33
2023-04-12T00:25:14.610Z,41.52
2023-04-12T00:30:17.858Z,41.06
2023-04-12T00:35:20.051Z,41.38
2023-04-12T00:40:22.635Z,41.52
2023-04-12T00:45:24.779Z,41.29
2023-04-12T00:50:26.927Z,41.12
2023-04-12T00:55:28.884Z,41.24
2023-04-12T01:00:31.261Z,41.41
2023-04-12T01:05:41.151Z,41.37
2023-04-12T01:10:48.992Z,41.15
2023-04-12T01:15:58.958Z,41.15
2023-04-12T01:21:09.061Z,41.45
2023-04-12T01:31:19.548Z,41.25
2023-04-12T01:36:23.305Z,41.10
2023-04-12T01:41:25.346Z,41.27
2023-04-12T01:46:27.217Z,41.43
2023-04-12T01:51:50.098Z,41.66
2023-04-12T01:56:58.297Z,41.45
2023-04-12T02:02:00.430Z,41.54
2023-04-12T02:07:03.310Z,41.47
2023-04-12T02:12:06.926Z,41.58
2023-04-12T02:17:09.028Z,41.56
2023-04-12T02:22:11.112Z,41.34
2023-04-12T02:27:13.241Z,41.44
2023-04-12T02:32:16.161Z,41.33
2023-04-12T02:37:22.266Z,41.56
2023-04-12T02:42:24.485Z,41.58
2023-04-12T02:47:29.484Z,41.69
2023-04-12T02:52:33.378Z,41.36
2023-04-12T02:57:35.807Z,41.40
2023-04-12T03:02:38.349Z,41.57
2023-04-12T03:07:40.576Z,41.37
2023-04-12T03:12:42.676Z,41.73
2023-04-12T03:17:45.281Z,41.53
2023-04-12T03:22:47.424Z,41.56
2023-04-12T03:27:49.456Z,41.82
2023-04-12T03:32:51.512Z,41.60
2023-04-12T03:37:53.412Z,41.73
2023-04-12T03:42:55.407Z,41.77
2023-04-12T03:48:00.740Z,41.62
2023-04-12T03:53:02.798Z,41.57
2023-04-12T03:58:05.324Z,41.81
2023-04-12T04:03:07.393Z,41.75
2023-04-12T04:08:10.393Z,41.62
2023-04-12T04:13:12.293Z,41.76
2023-04-12T04:18:14.253Z,41.68
2023-04-12T04:23:17.815Z,41.55
2023-04-12T04:28:20.329Z,41.73
2023-04-12T04:33:22.301Z,41.91
2023-04-12T04:38:27.373Z,41.83
2023-04-12T04:43:34.360Z,41.58
2023-04-12T04:48:36.854Z,41.54
2023-04-12T04:53:39.001Z,41.68
2023-04-12T04:58:41.251Z,41.64
2023-04-12T05:03:45.516Z,41.85
2023-04-12T05:08:47.564Z,41.68
2023-04-12T05:13:49.584Z,41.60
2023-04-12T05:18:51.605Z,41.80
2023-04-12T05:23:53.917Z,41.97
2023-04-12T05:28:56.388Z,42.00
2023-04-12T05:33:58.644Z,41.78
2023-04-12T05:39:00.850Z,41.60
2023-04-12T05:44:04.080Z,42.04
2023-04-12T05:49:07.062Z,41.89
2023-04-12T05:54:09.450Z,42.06
2023-04-12T05:59:12.914Z,41.66
2023-04-12T06:04:15.552Z,41.69
2023-04-12T06:09:17.549Z,41.87
2023-04-12T06:14:19.820Z,41.91
2023-04-12T06:19:22.378Z,41.71
2023-04-12T06:24:24.333Z,42.34
2023-04-12T06:29:26.513Z,42.07
2023-04-12T06:34:28.409Z,42.16
2023-04-12T06:39:32.176Z,41.76
2023-04-12T06:44:34.261Z,42.09
2023-04-12T06:49:36.340Z,42.09
2023-04-12T06:54:39.551Z,42.18
2023-04-12T06:59:41.666Z,42.14
2023-04-12T07:04:43.854Z,42.26
2023-04-12T07:09:48.074Z,42.23
2023-04-12T07:14:50.128Z,41.93
2023-04-12T07:19:52.974Z,42.53
2023-04-12T07:24:55.766Z,43.32
2023-04-12T07:30:00.611Z,43.14
2023-04-12T07:35:02.840Z,42.79
2023-04-12T07:40:05.246Z,42.63
2023-04-12T07:45:07.669Z,42.58
2023-04-12T07:50:12.063Z,42.55
2023-04-12T07:55:15.058Z,42.50
2023-04-12T08:00:18.732Z,42.20
2023-04-12T08:05:20.767Z,42.35
2023-04-12T08:10:23.061Z,42.21
2023-04-12T08:15:25.519Z,42.11
2023-04-12T08:20:28.224Z,41.75
2023-04-12T08:25:30.584Z,42.00
2023-04-12T08:30:32.846Z,41.94
2023-04-12T08:35:34.910Z,41.75
2023-04-12T08:40:37.572Z,42.10
2023-04-12T08:45:40.014Z,41.59
2023-04-12T08:50:44.401Z,41.87
2023-04-12T08:55:46.578Z,41.76
2023-04-12T09:00:50.139Z,41.80
2023-04-12T09:05:52.267Z,41.62
2023-04-12T09:10:54.494Z,41.58
2023-04-12T09:15:56.703Z,41.89
2023-04-12T09:21:09.671Z,41.69
2023-04-12T09:26:29.061Z,41.68
2023-04-12T09:31:31.966Z,41.62
2023-04-12T09:36:43.556Z,41.39
2023-04-12T09:41:45.736Z,41.36
2023-04-12T09:46:52.320Z,41.49
2023-04-12T09:51:54.382Z,41.63
2023-04-12T09:56:57.785Z,41.98
2023-04-12T10:02:00.112Z,41.95
2023-04-12T10:07:04.564Z,41.96
2023-04-12T10:12:07.564Z,42.01
2023-04-12T10:17:12.967Z,42.02
2023-04-12T10:22:17.575Z,41.49
2023-04-12T10:27:28.756Z,41.64
2023-04-12T10:32:34.076Z,42.07
2023-04-12T10:38:00.568Z,41.80
2023-04-12T10:43:27.161Z,41.85
2023-04-12T10:48:33.031Z,41.76
2023-04-12T10:53:34.983Z,41.66
2023-04-12T10:58:49.351Z,41.88
2023-04-12T11:04:10.277Z,42.01
2023-04-12T11:09:26.745Z,41.89
2023-04-12T11:14:35.458Z,41.87
2023-04-12T11:19:44.049Z,41.91
2023-04-12T11:24:49.076Z,41.64
2023-04-12T11:29:54.981Z,41.50
2023-04-12T11:34:58.803Z,41.37
2023-04-12T11:40:00.915Z,41.33
2023-04-12T11:45:13.357Z,41.45
2023-04-12T11:50:31.420Z,41.28
2023-04-12T11:55:34.223Z,41.39
2023-04-12T12:00:36.777Z,41.44
2023-04-12T12:05:41.365Z,41.46
2023-04-12T12:10:59.992Z,41.50
2023-04-12T12:16:11.844Z,41.33
2023-04-12T12:21:14.998Z,41.16
2023-04-12T12:26:26.162Z,41.36
2023-04-12T12:31:29.061Z,41.23
2023-04-12T12:36:36.942Z,41.28
2023-04-12T12:41:40.394Z,41.26
2023-04-12T12:51:47.848Z,40.99
2023-04-12T12:56:49.899Z,41.03
2023-04-12T13:01:52.176Z,41.08
2023-04-12T13:06:54.437Z,41.05
2023-04-12T13:11:57.953Z,41.29
2023-04-12T13:17:00.175Z,41.03
2023-04-12T13:22:02.552Z,41.40
2023-04-12T13:27:05.476Z,41.48
2023-04-12T13:32:08.008Z,41.20
2023-04-12T13:37:11.465Z,41.43
2023-04-12T13:42:14.880Z,41.43
2023-04-12T13:47:38.065Z,41.27
2023-04-12T13:52:40.323Z,41.17
2023-04-12T13:57:42.794Z,41.33
2023-04-12T14:02:45.258Z,41.29
2023-04-12T14:07:50.211Z,41.07
2023-04-12T14:12:52.661Z,41.24
2023-04-12T14:17:54.952Z,41.21
2023-04-12T14:22:57.456Z,41.28
2023-04-12T14:27:59.483Z,41.22
2023-04-12T14:33:01.966Z,41.04
2023-04-12T14:38:05.374Z,41.35
2023-04-12T14:43:08.300Z,41.53
2023-04-12T14:48:10.866Z,41.71
2023-04-12T14:53:14.217Z,41.60
2023-04-12T14:58:16.155Z,41.58
2023-04-12T15:03:18.381Z,41.44
2023-04-12T15:08:20.556Z,41.51
2023-04-12T15:13:26.483Z,41.65
2023-04-12T15:18:31.127Z,41.16
2023-04-12T15:23:33.211Z,42.50
2023-04-12T15:28:36.880Z,42.71
2023-04-12T15:33:39.093Z,42.85
2023-04-12T15:38:42.884Z,42.44
2023-04-12T15:43:49.750Z,42.57
2023-04-12T15:48:52.506Z,42.40
2023-04-12T15:53:55.432Z,43.68
2023-04-12T15:58:58.292Z,43.58
2023-04-12T16:04:00.676Z,43.71
2023-04-12T16:09:02.885Z,43.80
2023-04-12T16:14:05.029Z,43.59
2023-04-12T16:19:09.314Z,43.32
2023-04-12T16:24:11.895Z,42.80
2023-04-12T16:29:13.962Z,42.52
2023-04-12T16:34:16.124Z,42.24
2023-04-12T16:39:19.251Z,42.16
2023-04-12T16:44:21.380Z,42.32
2023-04-12T16:49:23.517Z,42.16
2023-04-12T16:54:26.041Z,41.91
2023-04-12T16:59:28.261Z,41.90
2023-04-12T17:04:30.791Z,41.81
2023-04-12T17:09:32.779Z,41.66
2023-04-12T17:14:34.871Z,41.83
2023-04-12T17:19:37.155Z,41.47
2023-04-12T17:24:39.350Z,41.74
2023-04-12T17:29:41.416Z,41.49
2023-04-12T17:34:43.669Z,41.69
2023-04-12T17:39:45.909Z,41.67
2023-04-12T17:44:48.493Z,41.57
2023-04-12T17:49:50.874Z,41.49
2023-04-12T17:54:53.337Z,41.24
2023-04-12T17:59:55.560Z,41.17
2023-04-12T18:04:57.608Z,41.33
2023-04-12T18:10:00.108Z,41.52
2023-04-12T18:15:04.692Z,41.48
2023-04-12T18:20:11.404Z,41.58
2023-04-12T18:25:13.685Z,41.63
2023-04-12T18:30:17.680Z,42.08
2023-04-12T18:35:20.101Z,41.92
2023-04-12T18:40:23.689Z,41.42
2023-04-12T18:45:26.604Z,41.61
2023-04-12T18:50:28.875Z,41.21
2023-04-12T18:55:30.973Z,41.11
2023-04-12T19:00:34.131Z,41.52
2023-04-12T19:05:36.343Z,41.08
2023-04-12T19:10:38.236Z,40.92
2023-04-12T19:15:40.223Z,41.03
2023-04-12T19:20:42.334Z,41.01
2023-04-12T19:25:44.345Z,40.60
2023-04-12T19:30:46.492Z,40.47
2023-04-12T19:35:48.630Z,40.87
2023-04-12T19:40:51.593Z,40.51
2023-04-12T19:45:53.736Z,40.53
2023-04-12T19:50:55.703Z,40.81
2023-04-12T19:55:58.781Z,40.41
2023-04-12T20:01:05.667Z,40.45
2023-04-12T20:06:07.692Z,40.76
2023-04-12T20:11:09.956Z,40.36
2023-04-12T20:16:12.309Z,40.63
2023-04-12T20:21:14.570Z,40.22
2023-04-12T20:26:16.800Z,40.35
2023-04-12T20:31:19.633Z,40.57
2023-04-12T20:36:22.921Z,41.08
2023-04-12T20:41:24.706Z,41.81
2023-04-12T20:46:26.977Z,41.92
2023-04-12T20:51:29.653Z,41.85
2023-04-12T20:56:31.990Z,42.18
2023-04-12T21:01:34.055Z,41.95
2023-04-12T21:06:37.838Z,42.26
2023-04-12T21:11:41.663Z,42.05
2023-04-12T21:16:44.087Z,42.21
2023-04-12T21:21:46.845Z,42.11
2023-04-12T21:26:56.658Z,42.07
2023-04-12T21:31:58.703Z,42.22
2023-04-12T21:37:04.486Z,41.95
2023-04-12T21:42:06.963Z,41.60
2023-04-12T21:47:09.253Z,41.81
2023-04-12T21:52:11.294Z,41.47
2023-04-12T21:57:15.450Z,41.32
2023-04-12T22:02:17.423Z,41.28
2023-04-12T22:07:19.639Z,41.08
2023-04-12T22:12:23.213Z,41.35
2023-04-12T22:17:25.427Z,41.27
2023-04-12T22:22:30.328Z,41.06
2023-04-12T22:27:32.264Z,40.97
2023-04-12T22:32:35.389Z,40.99
2023-04-12T22:37:43.984Z,40.93
2023-04-12T22:42:48.423Z,40.85
2023-04-12T22:47:50.387Z,40.80
2023-04-12T22:52:54.727Z,40.67
2023-04-12T22:57:56.559Z,40.58
2023-04-12T23:02:58.643Z,40.77
2023-04-12T23:08:00.988Z,40.61
2023-04-12T23:13:03.588Z,40.59
2023-04-12T23:18:05.625Z,40.57
2023-04-12T23:23:07.828Z,40.74
2023-04-12T23:28:14.809Z,40.52
2023-04-12T23:33:18.980Z,40.77
2023-04-12T23:38:24.803Z,40.38
2023-04-12T23:43:26.951Z,40.38
2023-04-12T23:48:29.494Z,40.50
2023-04-12T23:53:31.964Z,40.58
2023-04-12T23:58:36.677Z,40.58
